Time;durP1;ratioP1;P1;durP2;ratioP2;P2;SDS_P1;SDS_P2;PMS_P1;PMS_P2;Temp;Humidity;BMP_temperature;BMP_pressure;BME280_temperature;BME280_humidity;BME280_pressure;Samples;Min_cycle;Max_cycle;Signal;HPM_P1;HPM_P2
2023/02/16 00:00:36;;;;;;;;;;;28.20;96.20;;;;;;5046970;28;19948;-60
2023/02/16 00:03:03;;;;;;;;;;;28.40;95.40;;;;;;5051964;28;20286;-68
2023/02/16 00:05:31;;;;;;;;;;;28.60;94.80;;;;;;5052367;28;19919;-61
2023/02/16 00:07:58;;;;;;;;;;;28.60;94.70;;;;;;5051786;28;19909;-67
2023/02/16 00:10:25;;;;;;;;;;;28.60;94.70;;;;;;5051999;28;19921;-61
2023/02/16 00:15:57;;;;;;;;;;;28.60;94.90;;;;;;4982307;28;20092;-59
2023/02/16 00:18:23;;;;;;;;;;;28.90;95.80;;;;;;4984590;28;19987;-66
2023/02/16 00:20:49;;;;;;;;;;;29.10;94.60;;;;;;4979809;28;20365;-60
2023/02/16 00:23:16;;;;;;;;;;;29.20;94.20;;;;;;4985142;28;19920;-66
2023/02/16 00:25:42;;;;;;;;;;;29.30;94.00;;;;;;4986291;28;20000;-66
2023/02/16 00:28:13;;;;;;;;;;;29.60;93.60;;;;;;4984910;28;19914;-63
2023/02/16 00:30:40;;;;;;;;;;;29.80;93.70;;;;;;4985289;28;19997;-63
2023/02/16 00:33:16;;;;;;;;;;;30.00;93.40;;;;;;4985548;28;19914;-61
2023/02/16 00:35:43;;;;;;;;;;;30.20;93.60;;;;;;4985620;28;20368;-60
2023/02/16 00:38:10;;;;;;;;;;;30.40;93.20;;;;;;4984872;28;19926;-63
2023/02/16 00:40:37;;;;;;;;;;;30.70;93.00;;;;;;4985610;28;19968;-61
2023/02/16 00:43:03;;;;;;;;;;;30.80;93.00;;;;;;4980794;28;19914;-63
2023/02/16 00:45:31;;;;;;;;;;;30.90;92.60;;;;;;4985891;28;19977;-61
2023/02/16 00:47:57;;;;;;;;;;;31.00;92.40;;;;;;5048017;28;19909;-62
2023/02/16 00:50:27;;;;;;;;;;;31.20;92.10;;;;;;5041283;28;20284;-61
2023/02/16 00:52:54;;;;;;;;;;;31.40;91.60;;;;;;5043092;28;19970;-59
2023/02/16 00:55:21;;;;;;;;;;;31.40;91.70;;;;;;5041692;28;20434;-65
2023/02/16 00:57:53;;;;;;;;;;;31.50;91.40;;;;;;5047560;28;19913;-63
2023/02/16 01:00:24;;;;;;;;;;;31.40;91.40;;;;;;5052169;28;20439;-61
2023/02/16 01:02:51;;;;;;;;;;;31.80;90.80;;;;;;5048590;28;19913;-65
2023/02/16 01:05:18;;;;;;;;;;;32.00;91.10;;;;;;5046199;28;19916;-60
2023/02/16 01:13:35;;;;;;;;;;;32.60;89.70;;;;;;5007865;28;19939;-62
2023/02/16 01:16:01;;;;;;;;;;;32.80;89.80;;;;;;5005564;28;20072;-63
2023/02/16 01:18:28;;;;;;;;;;;32.80;88.60;;;;;;5005954;28;19913;-63
2023/02/16 01:20:54;;;;;;;;;;;33.00;89.30;;;;;;5002778;28;19992;-60
2023/02/16 01:23:20;;;;;;;;;;;33.30;90.00;;;;;;5005593;28;19940;-64
2023/02/16 01:25:47;;;;;;;;;;;33.20;87.50;;;;;;5006456;28;20000;-61
2023/02/16 01:28:18;;;;;;;;;;;33.30;86.30;;;;;;5005029;28;19924;-61
2023/02/16 01:30:44;;;;;;;;;;;33.20;88.50;;;;;;5005521;28;19925;-66
2023/02/16 01:33:10;;;;;;;;;;;33.40;85.80;;;;;;5005691;28;20108;-64
2023/02/16 01:35:37;;;;;;;;;;;33.40;87.30;;;;;;5005896;28;19916;-64
2023/02/16 01:38:06;;;;;;;;;;;33.60;86.90;;;;;;5005376;28;19968;-63
2023/02/16 01:40:32;;;;;;;;;;;33.70;86.10;;;;;;5006020;28;19921;-61
2023/02/16 01:43:05;;;;;;;;;;;33.60;85.20;;;;;;5005754;28;19960;-64
2023/02/16 01:45:37;;;;;;;;;;;34.00;83.00;;;;;;5033074;28;19909;-62
2023/02/16 01:48:04;;;;;;;;;;;34.20;84.10;;;;;;5046376;28;19912;-65
2023/02/16 01:50:52;;;;;;;;;;;34.40;83.50;;;;;;5046784;28;20015;-64
2023/02/16 01:53:54;;;;;;;;;;;34.50;82.80;;;;;;5046502;28;19948;-62
2023/02/16 01:56:40;;;;;;;;;;;34.50;82.40;;;;;;4978798;28;19918;-61
2023/02/16 01:59:25;;;;;;;;;;;34.70;83.10;;;;;;4983030;28;19923;-64
2023/02/16 02:01:54;;;;;;;;;;;34.80;82.20;;;;;;4982393;28;19914;-61
2023/02/16 02:07:05;;;;;;;;;;;34.90;81.50;;;;;;4985337;28;20008;-63
2023/02/16 02:09:31;;;;;;;;;;;35.10;79.80;;;;;;4985537;28;20284;-63
2023/02/16 02:12:08;;;;;;;;;;;35.20;81.20;;;;;;4984608;28;19964;-62
2023/02/16 02:14:37;;;;;;;;;;;35.50;78.40;;;;;;4991441;28;19918;-63
2023/02/16 02:17:13;;;;;;;;;;;35.40;80.60;;;;;;4980392;28;19918;-67
2023/02/16 02:19:48;;;;;;;;;;;35.30;80.20;;;;;;4985389;28;19913;-64
2023/02/16 02:25:22;;;;;;;;;;;35.60;79.80;;;;;;4991142;28;19924;-62
2023/02/16 02:27:48;;;;;;;;;;;35.80;79.40;;;;;;4931179;29;19923;-62
2023/02/16 02:30:27;;;;;;;;;;;35.80;77.70;;;;;;4955928;28;20377;-62
2023/02/16 02:33:05;;;;;;;;;;;35.80;78.00;;;;;;4987014;28;20379;-64
2023/02/16 02:35:50;;;;;;;;;;;35.90;78.70;;;;;;4990035;28;20364;-63
2023/02/16 02:38:25;;;;;;;;;;;36.10;76.60;;;;;;4983134;28;20352;-63
2023/02/16 02:40:57;;;;;;;;;;;36.20;78.60;;;;;;4983934;28;19941;-62
2023/02/16 02:43:30;;;;;;;;;;;36.30;77.90;;;;;;4988576;28;19924;-62
2023/02/16 02:46:02;;;;;;;;;;;36.30;78.50;;;;;;4995699;28;20400;-65
2023/02/16 02:48:32;;;;;;;;;;;36.50;77.00;;;;;;4988917;28;20442;-62
2023/02/16 03:00:39;;;;;;;;;;;36.60;77.30;;;;;;4986991;28;19979;-61
2023/02/16 03:02:14;;;;;;;;;;;37.10;74.90;;;;;;4989644;28;20335;-66
2023/02/16 03:04:40;;;;;;;;;;;37.10;73.30;;;;;;5016426;28;19955;-62
2023/02/16 03:07:08;;;;;;;;;;;37.40;74.40;;;;;;5045758;28;19916;-60
2023/02/16 03:09:34;;;;;;;;;;;37.50;73.90;;;;;;5044898;28;20357;-63
2023/02/16 03:15:04;;;;;;;;;;;37.80;71.70;;;;;;5049291;28;20345;-64
2023/02/16 03:31:24;;;;;;;;;;;38.10;73.30;;;;;;5047911;28;20028;-61
2023/02/16 03:33:53;;;;;;;;;;;38.00;72.20;;;;;;5050378;28;19913;-68
2023/02/16 03:36:23;;;;;;;;;;;38.30;72.50;;;;;;5048963;28;19913;-61
2023/02/16 03:38:50;;;;;;;;;;;38.20;72.00;;;;;;5049857;28;19920;-63
2023/02/16 03:41:17;;;;;;;;;;;38.00;72.30;;;;;;5049207;28;19921;-67
2023/02/16 03:43:43;;;;;;;;;;;38.00;71.40;;;;;;5049329;28;19909;-59
2023/02/16 03:46:10;;;;;;;;;;;37.80;73.10;;;;;;5048817;28;20289;-62
2023/02/16 03:48:36;;;;;;;;;;;38.10;70.10;;;;;;5049208;28;20939;-67
2023/02/16 03:51:02;;;;;;;;;;;38.20;70.80;;;;;;5049770;28;19979;-64
2023/02/16 03:53:29;;;;;;;;;;;38.40;70.40;;;;;;5042647;28;19919;-60
2023/02/16 03:55:55;;;;;;;;;;;38.50;70.90;;;;;;5049127;28;20662;-62
2023/02/16 03:58:22;;;;;;;;;;;38.70;71.00;;;;;;5049078;28;19947;-63
2023/02/16 04:00:49;;;;;;;;;;;39.00;72.10;;;;;;5049082;28;20267;-60
2023/02/16 04:03:15;;;;;;;;;;;38.60;70.30;;;;;;5048790;28;19912;-62
2023/02/16 04:05:42;;;;;;;;;;;38.80;70.70;;;;;;5049168;28;19913;-62
2023/02/16 04:08:08;;;;;;;;;;;39.00;68.80;;;;;;5048754;28;19913;-63
2023/02/16 04:10:35;;;;;;;;;;;38.90;70.50;;;;;;5049328;28;20259;-59
2023/02/16 04:13:01;;;;;;;;;;;38.90;69.60;;;;;;5046874;28;19953;-67
2023/02/16 04:15:29;;;;;;;;;;;39.10;71.00;;;;;;5048590;28;19958;-70
2023/02/16 04:17:55;;;;;;;;;;;39.10;68.60;;;;;;5049312;28;20452;-63
2023/02/16 04:20:24;;;;;;;;;;;38.90;71.40;;;;;;5046265;28;19917;-61
2023/02/16 04:22:51;;;;;;;;;;;38.60;70.60;;;;;;5045561;28;19917;-62
2023/02/16 04:25:18;;;;;;;;;;;38.60;70.50;;;;;;5044263;28;19924;-66
2023/02/16 04:27:44;;;;;;;;;;;38.60;68.30;;;;;;5033817;28;19925;-66
2023/02/16 04:30:12;;;;;;;;;;;38.90;69.40;;;;;;5041238;28;19921;-63
2023/02/16 04:32:39;;;;;;;;;;;38.60;67.80;;;;;;5047790;28;19980;-60
2023/02/16 04:35:06;;;;;;;;;;;38.70;67.40;;;;;;5044976;28;20441;-62
2023/02/16 04:37:32;;;;;;;;;;;38.40;68.00;;;;;;5042990;28;19921;-64
2023/02/16 04:39:58;;;;;;;;;;;38.20;68.20;;;;;;5040587;28;19917;-61
2023/02/16 04:42:25;;;;;;;;;;;38.10;66.20;;;;;;5037724;28;20035;-64
2023/02/16 04:44:52;;;;;;;;;;;38.10;68.20;;;;;;5037849;28;19917;-64
2023/02/16 04:47:18;;;;;;;;;;;38.40;70.30;;;;;;5042522;28;19917;-66
2023/02/16 04:49:45;;;;;;;;;;;38.30;67.00;;;;;;5037665;28;19924;-67
2023/02/16 04:52:12;;;;;;;;;;;38.40;68.00;;;;;;5042579;28;19917;-65
2023/02/16 04:54:38;;;;;;;;;;;38.50;68.70;;;;;;5044447;28;19920;-69
2023/02/16 04:57:05;;;;;;;;;;;38.80;67.50;;;;;;5047128;28;20417;-66
2023/02/16 04:59:31;;;;;;;;;;;38.90;67.80;;;;;;5041115;28;19929;-66
2023/02/16 05:01:57;;;;;;;;;;;39.20;68.60;;;;;;5044012;28;20295;-68
2023/02/16 05:04:24;;;;;;;;;;;38.70;67.40;;;;;;5045501;28;20398;-67
2023/02/16 05:06:50;;;;;;;;;;;38.80;68.70;;;;;;5047086;28;20006;-62
2023/02/16 05:09:16;;;;;;;;;;;39.30;68.50;;;;;;5042751;28;19925;-66
2023/02/16 05:14:41;;;;;;;;;;;39.60;67.70;;;;;;5041690;28;19925;-64
2023/02/16 05:17:17;;;;;;;;;;;39.60;66.40;;;;;;5041504;28;20407;-64
2023/02/16 05:19:45;;;;;;;;;;;39.40;66.60;;;;;;5045257;28;19987;-67
2023/02/16 05:22:11;;;;;;;;;;;39.20;67.30;;;;;;5044952;28;19912;-67
2023/02/16 05:24:38;;;;;;;;;;;39.20;64.90;;;;;;5045962;28;19913;-64
2023/02/16 05:27:06;;;;;;;;;;;39.10;66.90;;;;;;5041469;28;19986;-67
2023/02/16 05:29:32;;;;;;;;;;;38.90;66.00;;;;;;5047170;28;19913;-65
2023/02/16 05:31:59;;;;;;;;;;;38.90;68.20;;;;;;5046425;28;19932;-68
2023/02/16 05:34:26;;;;;;;;;;;39.00;70.00;;;;;;5046557;28;19956;-65
2023/02/16 05:36:53;;;;;;;;;;;39.10;67.70;;;;;;5044917;28;19980;-67
2023/02/16 05:39:20;;;;;;;;;;;39.10;69.80;;;;;;5043256;28;19935;-69
2023/02/16 05:41:47;;;;;;;;;;;39.30;70.10;;;;;;5045752;28;19927;-68
2023/02/16 05:44:13;;;;;;;;;;;39.00;68.90;;;;;;5052224;28;19943;-67
2023/02/16 05:46:40;;;;;;;;;;;38.60;69.70;;;;;;5042054;28;20022;-69
2023/02/16 05:49:07;;;;;;;;;;;38.50;69.60;;;;;;5039338;28;19928;-64
2023/02/16 05:51:33;;;;;;;;;;;38.40;71.50;;;;;;5047929;28;19921;-69
2023/02/16 05:54:00;;;;;;;;;;;38.50;70.20;;;;;;5043972;28;20451;-63
2023/02/16 05:56:26;;;;;;;;;;;38.90;70.20;;;;;;5043181;28;19917;-63
2023/02/16 05:58:53;;;;;;;;;;;39.10;70.20;;;;;;5037750;28;19925;-68
2023/02/16 06:01:20;;;;;;;;;;;39.10;69.90;;;;;;5048645;28;19912;-69
2023/02/16 06:03:47;;;;;;;;;;;39.00;68.80;;;;;;5041066;28;19921;-63
2023/02/16 06:06:13;;;;;;;;;;;38.70;69.80;;;;;;5048662;28;19913;-68
2023/02/16 06:08:40;;;;;;;;;;;38.60;70.00;;;;;;5043548;28;19979;-64
2023/02/16 06:11:34;;;;;;;;;;;38.40;71.30;;;;;;5043643;28;20415;-67
2023/02/16 06:13:56;;;;;;;;;;;38.10;71.70;;;;;;5047417;28;19920;-67
2023/02/16 06:16:26;;;;;;;;;;;37.80;70.90;;;;;;5048622;28;19944;-63
2023/02/16 06:18:53;;;;;;;;;;;37.90;70.80;;;;;;5046925;28;20416;-67
2023/02/16 06:21:20;;;;;;;;;;;37.90;71.30;;;;;;5048372;28;19917;-64
2023/02/16 06:23:46;;;;;;;;;;;37.90;70.70;;;;;;5048485;28;19912;-65
2023/02/16 06:26:12;;;;;;;;;;;37.60;70.80;;;;;;5042228;28;20378;-66
2023/02/16 06:28:39;;;;;;;;;;;37.30;71.50;;;;;;5043320;28;20050;-62
2023/02/16 06:31:05;;;;;;;;;;;37.40;71.40;;;;;;5039132;28;19921;-64
2023/02/16 06:33:32;;;;;;;;;;;37.70;73.30;;;;;;5040330;28;19917;-62
2023/02/16 06:35:58;;;;;;;;;;;37.90;72.00;;;;;;5035477;28;19923;-66
2023/02/16 06:38:25;;;;;;;;;;;38.00;71.00;;;;;;5043641;28;19970;-65
2023/02/16 06:40:52;;;;;;;;;;;38.10;71.10;;;;;;5043055;28;20263;-67
2023/02/16 06:43:18;;;;;;;;;;;38.10;70.90;;;;;;5041776;28;19921;-66
2023/02/16 06:45:45;;;;;;;;;;;38.30;70.60;;;;;;5042078;28;19917;-67
2023/02/16 06:48:11;;;;;;;;;;;38.20;70.80;;;;;;5048750;28;19924;-66
2023/02/16 06:50:38;;;;;;;;;;;38.30;69.50;;;;;;5050089;28;19985;-66
2023/02/16 06:53:04;;;;;;;;;;;38.40;69.70;;;;;;5050109;28;19963;-63
2023/02/16 06:55:35;;;;;;;;;;;38.60;69.80;;;;;;5048377;28;20358;-65
2023/02/16 06:58:02;;;;;;;;;;;38.80;68.50;;;;;;5038965;28;19921;-66
2023/02/16 07:00:29;;;;;;;;;;;38.60;69.20;;;;;;5037710;28;19916;-62
2023/02/16 07:02:55;;;;;;;;;;;38.70;68.00;;;;;;5048013;28;19927;-67
2023/02/16 07:05:22;;;;;;;;;;;38.60;69.00;;;;;;5041122;28;19917;-66
2023/02/16 07:07:48;;;;;;;;;;;38.50;69.20;;;;;;5044452;28;19917;-65
2023/02/16 07:10:15;;;;;;;;;;;38.40;68.40;;;;;;5040842;28;19913;-66
2023/02/16 07:12:41;;;;;;;;;;;38.00;69.10;;;;;;5049190;28;19940;-67
2023/02/16 07:15:08;;;;;;;;;;;38.30;68.90;;;;;;5050214;28;20360;-69
2023/02/16 07:17:35;;;;;;;;;;;38.40;69.00;;;;;;5047574;28;19917;-65
2023/02/16 07:20:03;;;;;;;;;;;38.30;69.10;;;;;;5042288;28;19917;-64
2023/02/16 07:22:29;;;;;;;;;;;37.90;68.80;;;;;;5051073;28;20382;-64
2023/02/16 07:24:56;;;;;;;;;;;37.80;69.20;;;;;;5043714;28;19956;-63
2023/02/16 07:27:23;;;;;;;;;;;37.80;69.10;;;;;;5053468;28;19916;-65
2023/02/16 07:29:49;;;;;;;;;;;37.60;68.70;;;;;;5051717;28;20329;-65
2023/02/16 07:32:15;;;;;;;;;;;37.80;69.70;;;;;;5052101;28;20334;-65
2023/02/16 07:34:42;;;;;;;;;;;37.70;69.60;;;;;;5051721;28;19971;-70
2023/02/16 07:37:08;;;;;;;;;;;37.40;69.40;;;;;;5053312;28;20324;-61
2023/02/16 07:39:34;;;;;;;;;;;37.20;69.90;;;;;;5050744;28;19920;-61
2023/02/16 07:42:01;;;;;;;;;;;37.50;69.40;;;;;;5052587;28;20168;-67
2023/02/16 07:44:27;;;;;;;;;;;37.30;68.90;;;;;;5050286;28;19916;-61
2023/02/16 07:46:54;;;;;;;;;;;37.30;69.50;;;;;;5050067;28;19924;-62
2023/02/16 07:49:20;;;;;;;;;;;37.20;69.00;;;;;;5053587;28;19919;-67
2023/02/16 07:51:46;;;;;;;;;;;36.90;69.30;;;;;;5054817;28;20478;-68
2023/02/16 07:54:13;;;;;;;;;;;36.80;70.30;;;;;;5048840;28;19917;-64
2023/02/16 07:56:39;;;;;;;;;;;36.50;70.00;;;;;;5048548;28;20201;-67
2023/02/16 07:59:05;;;;;;;;;;;36.50;69.70;;;;;;5051063;28;19963;-65
2023/02/16 08:01:33;;;;;;;;;;;36.20;69.80;;;;;;5051521;28;19921;-70
2023/02/16 08:03:59;;;;;;;;;;;36.10;70.70;;;;;;5046545;28;20360;-62
2023/02/16 08:06:25;;;;;;;;;;;35.60;71.00;;;;;;5051227;28;19916;-65
2023/02/16 08:08:52;;;;;;;;;;;35.80;71.20;;;;;;5075978;28;20348;-70
2023/02/16 08:11:23;;;;;;;;;;;35.70;70.40;;;;;;5052762;28;19952;-63
2023/02/16 08:13:49;;;;;;;;;;;35.00;70.80;;;;;;5049333;28;19912;-65
2023/02/16 08:16:25;;;;;;;;;;;34.70;71.50;;;;;;5043533;28;19923;-64
2023/02/16 08:18:52;;;;;;;;;;;34.50;72.60;;;;;;5040774;28;19921;-64
2023/02/16 08:21:20;;;;;;;;;;;34.00;73.30;;;;;;5034566;28;19924;-68
2023/02/16 08:23:51;;;;;;;;;;;33.30;74.10;;;;;;5035184;28;20247;-62
2023/02/16 08:26:19;;;;;;;;;;;32.60;75.10;;;;;;5035710;28;20011;-62
2023/02/16 08:28:46;;;;;;;;;;;31.40;76.60;;;;;;5043298;28;20003;-61
2023/02/16 08:31:13;;;;;;;;;;;30.80;78.00;;;;;;5037403;28;20035;-62
2023/02/16 08:33:41;;;;;;;;;;;30.40;79.10;;;;;;5039747;28;19924;-67
2023/02/16 08:36:15;;;;;;;;;;;29.70;80.60;;;;;;5041798;28;19917;-64
2023/02/16 08:38:42;;;;;;;;;;;29.50;81.30;;;;;;5042880;28;20007;-69
2023/02/16 08:41:08;;;;;;;;;;;29.20;82.20;;;;;;5036370;28;20408;-63
2023/02/16 08:43:34;;;;;;;;;;;28.80;82.90;;;;;;5040936;28;19924;-63
2023/02/16 08:46:01;;;;;;;;;;;28.60;84.80;;;;;;5036849;28;20418;-63
2023/02/16 08:48:34;;;;;;;;;;;28.30;85.40;;;;;;5043695;28;19920;-66
2023/02/16 08:51:00;;;;;;;;;;;28.00;85.80;;;;;;5041509;28;19921;-67
2023/02/16 08:53:31;;;;;;;;;;;27.80;87.00;;;;;;5035718;28;19960;-65
2023/02/16 08:55:59;;;;;;;;;;;27.40;87.50;;;;;;5040637;28;19924;-68
2023/02/16 08:58:25;;;;;;;;;;;27.30;88.40;;;;;;5030095;28;19925;-63
2023/02/16 09:00:55;;;;;;;;;;;27.20;88.90;;;;;;5035401;28;19992;-61
2023/02/16 09:03:21;;;;;;;;;;;27.00;89.80;;;;;;5036199;28;19913;-62
2023/02/16 09:05:48;;;;;;;;;;;26.80;90.30;;;;;;5038778;28;20442;-65
2023/02/16 09:08:15;;;;;;;;;;;26.70;90.60;;;;;;5041267;28;20290;-64
2023/02/16 09:10:42;;;;;;;;;;;26.40;91.00;;;;;;5031375;28;20363;-66
2023/02/16 09:13:12;;;;;;;;;;;26.20;91.40;;;;;;5041462;28;19924;-65
2023/02/16 09:15:40;;;;;;;;;;;26.10;91.90;;;;;;5035831;28;19917;-68
2023/02/16 09:18:08;;;;;;;;;;;26.00;91.90;;;;;;5032961;28;19920;-65
2023/02/16 09:20:38;;;;;;;;;;;25.80;92.40;;;;;;5034534;28;20020;-64
2023/02/16 09:23:05;;;;;;;;;;;25.70;92.70;;;;;;5037203;28;20015;-67
2023/02/16 09:25:35;;;;;;;;;;;25.60;93.20;;;;;;5039051;28;20414;-66
2023/02/16 09:28:02;;;;;;;;;;;25.50;93.60;;;;;;5039234;28;20313;-67
2023/02/16 09:30:28;;;;;;;;;;;25.40;93.70;;;;;;5041072;28;19971;-63
2023/02/16 09:32:55;;;;;;;;;;;25.30;94.20;;;;;;5038072;28;19943;-69
2023/02/16 09:35:21;;;;;;;;;;;25.20;94.60;;;;;;5035293;28;19998;-69
2023/02/16 09:37:48;;;;;;;;;;;25.10;95.00;;;;;;5038500;28;19920;-70
2023/02/16 09:40:15;;;;;;;;;;;25.00;95.50;;;;;;5040439;28;19921;-62
2023/02/16 09:42:53;;;;;;;;;;;24.90;95.90;;;;;;5036002;28;19924;-64
2023/02/16 09:45:20;;;;;;;;;;;24.80;96.20;;;;;;5029183;28;20035;-63
2023/02/16 09:47:49;;;;;;;;;;;24.70;96.80;;;;;;5031668;28;19979;-64
2023/02/16 09:50:18;;;;;;;;;;;24.60;97.10;;;;;;5040219;28;19917;-67
2023/02/16 09:52:50;;;;;;;;;;;24.40;97.70;;;;;;5039796;28;20831;-66
2023/02/16 09:55:17;;;;;;;;;;;24.30;98.30;;;;;;5040606;28;20376;-65
2023/02/16 10:00:13;;;;;;;;;;;24.20;99.00;;;;;;5051524;22;19937;-65
2023/02/16 10:02:42;;;;;;;;;;;24.10;99.40;;;;;;5006210;28;19922;-68
2023/02/16 10:05:12;;;;;;;;;;;24.00;99.90;;;;;;5012233;28;19920;-64
2023/02/16 10:07:47;;;;;;;;;;;24.10;99.90;;;;;;5014291;28;19917;-67
2023/02/16 10:10:17;;;;;;;;;;;23.90;99.90;;;;;;5013213;28;20457;-65
2023/02/16 10:12:48;;;;;;;;;;;23.80;99.90;;;;;;5012203;28;20302;-66
2023/02/16 10:15:18;;;;;;;;;;;23.80;99.90;;;;;;5009218;28;19928;-67
2023/02/16 10:17:47;;;;;;;;;;;23.70;99.90;;;;;;5011101;28;20008;-61
2023/02/16 10:20:23;;;;;;;;;;;23.60;99.90;;;;;;5005382;28;19917;-63
2023/02/16 10:22:49;;;;;;;;;;;23.60;99.90;;;;;;5006340;28;19924;-62
2023/02/16 10:25:18;;;;;;;;;;;23.60;99.90;;;;;;5000099;28;19932;-64
2023/02/16 10:27:47;;;;;;;;;;;23.70;99.90;;;;;;4987778;28;19921;-66
2023/02/16 10:30:18;;;;;;;;;;;23.60;99.90;;;;;;5000006;28;19940;-67
2023/02/16 10:32:55;;;;;;;;;;;23.50;99.90;;;;;;4996186;28;21431;-64
2023/02/16 10:35:44;;;;;;;;;;;23.50;99.90;;;;;;4995667;28;19921;-67
2023/02/16 10:38:30;;;;;;;;;;;23.50;99.90;;;;;;4993497;28;19970;-65
2023/02/16 10:40:59;;;;;;;;;;;23.50;99.90;;;;;;4999166;28;19924;-68
2023/02/16 10:43:32;;;;;;;;;;;23.30;99.90;;;;;;4999849;28;20064;-65
2023/02/16 10:46:00;;;;;;;;;;;23.20;99.90;;;;;;5000213;28;19924;-65
2023/02/16 10:48:26;;;;;;;;;;;23.10;99.90;;;;;;4998833;28;20456;-65
2023/02/16 10:50:53;;;;;;;;;;;23.10;99.90;;;;;;5004363;28;20422;-64
2023/02/16 10:53:29;;;;;;;;;;;23.10;99.90;;;;;;5010024;28;20011;-65
2023/02/16 10:55:56;;;;;;;;;;;23.00;99.90;;;;;;5013302;28;19925;-67
2023/02/16 10:58:26;;;;;;;;;;;23.00;99.90;;;;;;5000700;28;20265;-67
2023/02/16 11:01:13;;;;;;;;;;;22.90;99.90;;;;;;5002028;28;19918;-65
2023/02/16 11:03:44;;;;;;;;;;;22.80;99.90;;;;;;5007382;28;19921;-70
2023/02/16 11:06:17;;;;;;;;;;;22.80;99.90;;;;;;5006055;28;19960;-63
2023/02/16 11:08:48;;;;;;;;;;;22.70;99.90;;;;;;5003491;28;20451;-66
2023/02/16 11:11:15;;;;;;;;;;;22.60;99.90;;;;;;4995372;28;19925;-71
2023/02/16 11:13:46;;;;;;;;;;;22.60;99.90;;;;;;5005843;28;19922;-70
2023/02/16 11:16:18;;;;;;;;;;;22.50;99.90;;;;;;5001253;28;19924;-69
2023/02/16 11:19:07;;;;;;;;;;;22.60;99.90;;;;;;5001398;28;20450;-64
2023/02/16 11:21:46;;;;;;;;;;;22.50;99.90;;;;;;5001170;28;20276;-65
2023/02/16 11:24:22;;;;;;;;;;;22.40;99.90;;;;;;5001273;28;19928;-70
2023/02/16 11:27:07;;;;;;;;;;;22.40;99.90;;;;;;4997450;28;19927;-64
2023/02/16 11:29:34;;;;;;;;;;;22.50;99.90;;;;;;5001305;28;19917;-64
2023/02/16 11:32:05;;;;;;;;;;;22.50;99.90;;;;;;4999255;28;20333;-65
2023/02/16 11:34:33;;;;;;;;;;;22.40;99.90;;;;;;5003563;28;20389;-65
2023/02/16 11:37:19;;;;;;;;;;;22.30;99.90;;;;;;5004734;28;19917;-71
2023/02/16 11:39:50;;;;;;;;;;;22.30;99.90;;;;;;5023196;28;19968;-69
2023/02/16 11:42:32;;;;;;;;;;;22.20;99.90;;;;;;5023732;28;19917;-69
2023/02/16 11:44:59;;;;;;;;;;;22.10;99.90;;;;;;5023860;28;20536;-64
2023/02/16 11:47:33;;;;;;;;;;;21.90;99.90;;;;;;5025192;28;20434;-64
2023/02/16 11:50:20;;;;;;;;;;;22.00;99.90;;;;;;5024385;28;19916;-64
2023/02/16 11:52:48;;;;;;;;;;;22.00;99.90;;;;;;5022246;28;20454;-67
2023/02/16 11:55:20;;;;;;;;;;;21.90;99.90;;;;;;5024696;28;20355;-70
2023/02/16 11:57:47;;;;;;;;;;;21.80;99.90;;;;;;5024442;28;20335;-63
2023/02/16 12:00:17;;;;;;;;;;;21.80;99.90;;;;;;5024267;28;20757;-63
2023/02/16 12:03:02;;;;;;;;;;;21.70;99.90;;;;;;5024023;28;20317;-64
2023/02/16 12:05:34;;;;;;;;;;;21.70;99.90;;;;;;5016129;28;19956;-68
2023/02/16 12:08:01;;;;;;;;;;;21.70;99.90;;;;;;5020499;28;19913;-69
2023/02/16 12:10:53;;;;;;;;;;;21.70;99.90;;;;;;5025094;28;20007;-71
2023/02/16 12:13:26;;;;;;;;;;;21.60;99.90;;;;;;5017382;28;20027;-63
2023/02/16 12:16:05;;;;;;;;;;;21.70;99.90;;;;;;5022394;28;20024;-68
2023/02/16 12:18:51;;;;;;;;;;;21.70;99.90;;;;;;5007099;28;19913;-67
2023/02/16 12:21:21;;;;;;;;;;;21.70;99.90;;;;;;5003228;28;19921;-65
2023/02/16 12:24:02;;;;;;;;;;;21.60;99.90;;;;;;5007574;28;19913;-64
2023/02/16 12:26:48;;;;;;;;;;;21.50;99.90;;;;;;5002476;28;19921;-64
2023/02/16 12:29:19;;;;;;;;;;;21.40;99.90;;;;;;5007027;28;20427;-70
2023/02/16 12:31:54;;;;;;;;;;;21.30;99.90;;;;;;5007399;28;19983;-63
2023/02/16 12:34:26;;;;;;;;;;;21.30;99.90;;;;;;5001189;28;20349;-64
2023/02/16 12:37:11;;;;;;;;;;;21.30;99.90;;;;;;5000812;28;20265;-64
2023/02/16 12:39:55;;;;;;;;;;;21.20;99.90;;;;;;5006523;28;19922;-64
2023/02/16 12:42:35;;;;;;;;;;;21.10;99.90;;;;;;5007208;28;19960;-71
2023/02/16 12:45:13;;;;;;;;;;;21.20;99.90;;;;;;5008906;28;19917;-63
2023/02/16 12:47:43;;;;;;;;;;;21.20;99.90;;;;;;5005858;28;20000;-64
2023/02/16 12:50:22;;;;;;;;;;;21.20;99.90;;;;;;5008911;28;19965;-66
2023/02/16 12:52:51;;;;;;;;;;;21.10;99.90;;;;;;5006387;28;19918;-69
2023/02/16 12:55:18;;;;;;;;;;;21.20;99.90;;;;;;5012540;28;20014;-64
2023/02/16 12:57:57;;;;;;;;;;;21.10;99.90;;;;;;5005991;28;20034;-68
2023/02/16 13:00:28;;;;;;;;;;;21.00;99.90;;;;;;5000377;28;19992;-64
2023/02/16 13:03:07;;;;;;;;;;;20.90;99.90;;;;;;5000550;28;19918;-65
2023/02/16 13:05:36;;;;;;;;;;;20.90;99.90;;;;;;5007541;28;19917;-70
2023/02/16 13:08:25;;;;;;;;;;;20.90;99.90;;;;;;5007644;28;20368;-65
2023/02/16 13:10:57;;;;;;;;;;;20.90;99.90;;;;;;4987431;28;19925;-67
2023/02/16 13:13:29;;;;;;;;;;;20.80;99.90;;;;;;4992037;28;19914;-66
2023/02/16 13:16:00;;;;;;;;;;;20.80;99.90;;;;;;4986027;28;19914;-66
2023/02/16 13:18:29;;;;;;;;;;;20.80;99.90;;;;;;4989533;28;20016;-70
2023/02/16 13:21:02;;;;;;;;;;;20.80;99.90;;;;;;4983663;28;19914;-65
2023/02/16 13:23:37;;;;;;;;;;;20.80;99.90;;;;;;4985523;28;19918;-68
2023/02/16 13:26:10;;;;;;;;;;;20.90;99.90;;;;;;4990845;28;20297;-64
2023/02/16 13:29:00;;;;;;;;;;;21.00;99.90;;;;;;4988028;28;20471;-65
2023/02/16 13:31:46;;;;;;;;;;;20.90;99.90;;;;;;4987332;28;19918;-64
2023/02/16 13:34:30;;;;;;;;;;;20.90;99.90;;;;;;4990634;28;20671;-67
2023/02/16 13:37:04;;;;;;;;;;;20.90;99.90;;;;;;4984168;28;20012;-71
2023/02/16 13:39:49;;;;;;;;;;;20.70;99.90;;;;;;4988003;28;20415;-65
2023/02/16 13:42:28;;;;;;;;;;;20.50;99.90;;;;;;4987726;28;19917;-65
2023/02/16 13:44:59;;;;;;;;;;;20.40;99.90;;;;;;4988285;28;19917;-71
2023/02/16 13:47:27;;;;;;;;;;;20.40;99.90;;;;;;4991972;28;19921;-69
2023/02/16 13:50:00;;;;;;;;;;;20.50;99.90;;;;;;5009293;28;19921;-65
2023/02/16 13:52:26;;;;;;;;;;;20.50;99.90;;;;;;5010659;28;19917;-65
2023/02/16 13:54:53;;;;;;;;;;;20.60;99.90;;;;;;5010366;28;19945;-65
2023/02/16 13:57:37;;;;;;;;;;;20.70;99.90;;;;;;5003208;28;19918;-69
2023/02/16 14:00:04;;;;;;;;;;;20.70;99.90;;;;;;5001278;28;19918;-67
2023/02/16 14:02:49;;;;;;;;;;;20.70;99.90;;;;;;5009702;28;20435;-70
2023/02/16 14:05:22;;;;;;;;;;;20.60;99.90;;;;;;5010738;28;19913;-65
2023/02/16 14:08:07;;;;;;;;;;;20.40;99.90;;;;;;5003640;28;19975;-64
2023/02/16 14:10:56;;;;;;;;;;;20.20;99.90;;;;;;5004399;28;19924;-64
2023/02/16 14:13:26;;;;;;;;;;;20.00;99.90;;;;;;5009511;28;20362;-68
2023/02/16 14:15:54;;;;;;;;;;;20.00;99.90;;;;;;5004403;28;19914;-71
2023/02/16 14:18:26;;;;;;;;;;;20.00;99.90;;;;;;5005197;28;19921;-71
2023/02/16 14:21:03;;;;;;;;;;;20.10;99.90;;;;;;5005048;28;20284;-71
2023/02/16 14:23:34;;;;;;;;;;;20.10;99.90;;;;;;5010264;28;19936;-65
2023/02/16 14:26:02;;;;;;;;;;;19.90;99.90;;;;;;5009072;28;19913;-65
2023/02/16 14:28:31;;;;;;;;;;;19.90;99.90;;;;;;5003341;28;19936;-64
2023/02/16 14:31:02;;;;;;;;;;;19.80;99.90;;;;;;5005907;28;19941;-65
2023/02/16 14:33:40;;;;;;;;;;;19.90;99.90;;;;;;5009380;28;20016;-65
2023/02/16 14:36:13;;;;;;;;;;;19.90;99.90;;;;;;5008765;28;19957;-67
2023/02/16 14:38:40;;;;;;;;;;;20.00;99.90;;;;;;5004264;28;20368;-70
2023/02/16 14:41:12;;;;;;;;;;;19.90;99.90;;;;;;5008428;28;19964;-67
2023/02/16 14:43:43;;;;;;;;;;;19.90;99.90;;;;;;5012451;28;19922;-70
2023/02/16 14:46:15;;;;;;;;;;;19.70;99.90;;;;;;5003892;28;19913;-68
2023/02/16 14:48:57;;;;;;;;;;;19.80;99.90;;;;;;5009133;28;19921;-65
2023/02/16 14:51:38;;;;;;;;;;;19.80;99.90;;;;;;5010104;28;20650;-64
2023/02/16 14:54:23;;;;;;;;;;;19.70;99.90;;;;;;5003821;28;19960;-64
2023/02/16 14:56:49;;;;;;;;;;;19.70;99.90;;;;;;5006214;28;19914;-64
2023/02/16 14:59:22;;;;;;;;;;;19.60;99.90;;;;;;5001999;28;19924;-64
2023/02/16 15:01:49;;;;;;;;;;;19.70;99.90;;;;;;5006816;28;19984;-63
2023/02/16 15:04:38;;;;;;;;;;;19.80;99.90;;;;;;5010196;28;19909;-65
2023/02/16 15:07:06;;;;;;;;;;;19.70;99.90;;;;;;5007428;28;19948;-70
2023/02/16 15:09:33;;;;;;;;;;;19.60;99.90;;;;;;5004197;28;19918;-70
2023/02/16 15:12:22;;;;;;;;;;;19.50;99.90;;;;;;5002776;28;20380;-63
2023/02/16 15:14:52;;;;;;;;;;;19.50;99.90;;;;;;5010018;28;20008;-70
2023/02/16 15:17:27;;;;;;;;;;;19.40;99.90;;;;;;5007323;28;19918;-70
2023/02/16 15:19:54;;;;;;;;;;;19.40;99.90;;;;;;5006887;28;19914;-65